Time;durP1;ratioP1;P1;durP2;ratioP2;P2;SDS_P1;SDS_P2;PMS_P1;PMS_P2;Temp;Humidity;BMP_temperature;BMP_pressure;BME280_temperature;BME280_humidity;BME280_pressure;Samples;Min_cycle;Max_cycle;Signal;HPM_P1;HPM_P2
2021/04/01 00:01:05;;;;;;;;;;;12.40;99.90;;;;;;4127887;28;19917;-78
2021/04/01 00:03:05;;;;;;;;;;;12.40;99.90;;;;;;4129110;28;19957;-78
2021/04/01 00:05:07;;;;;;;;;;;12.40;99.90;;;;;;4122698;28;19910;-78
2021/04/01 00:07:09;;;;;;;;;;;12.40;99.90;;;;;;4132325;28;19956;-78
2021/04/01 00:09:10;;;;;;;;;;;12.30;99.90;;;;;;4120061;28;19921;-77
2021/04/01 00:11:11;;;;;;;;;;;12.30;99.90;;;;;;4119807;28;19993;-78
2021/04/01 00:13:11;;;;;;;;;;;12.40;99.90;;;;;;4128217;28;20356;-77
2021/04/01 00:15:13;;;;;;;;;;;12.50;99.90;;;;;;4131610;28;19914;-79
2021/04/01 00:17:13;;;;;;;;;;;12.50;99.90;;;;;;4132894;28;19910;-78
2021/04/01 00:19:14;;;;;;;;;;;12.50;99.90;;;;;;4156247;28;19947;-78
2021/04/01 00:21:14;;;;;;;;;;;12.40;99.90;;;;;;4164438;28;20382;-79
2021/04/01 00:23:15;;;;;;;;;;;12.30;99.90;;;;;;4147484;28;20352;-79
2021/04/01 00:25:17;;;;;;;;;;;12.20;99.90;;;;;;4148124;28;20003;-78
2021/04/01 00:27:18;;;;;;;;;;;12.10;99.90;;;;;;4166662;28;19909;-79
2021/04/01 00:29:19;;;;;;;;;;;12.10;99.90;;;;;;4165595;28;20343;-79
2021/04/01 00:31:19;;;;;;;;;;;12.00;99.90;;;;;;4165499;28;19996;-79
2021/04/01 00:33:20;;;;;;;;;;;11.90;99.90;;;;;;4161358;28;19909;-79
2021/04/01 00:35:21;;;;;;;;;;;11.90;99.90;;;;;;4147581;28;19964;-78
2021/04/01 00:37:21;;;;;;;;;;;11.90;99.90;;;;;;4146370;28;20752;-80
2021/04/01 00:39:22;;;;;;;;;;;11.80;99.90;;;;;;4161644;28;19932;-79
2021/04/01 00:41:22;;;;;;;;;;;11.80;99.90;;;;;;4145743;28;20371;-80
2021/04/01 00:43:23;;;;;;;;;;;11.70;99.90;;;;;;4146529;28;19910;-79
2021/04/01 00:45:24;;;;;;;;;;;11.70;99.90;;;;;;4161784;28;20422;-79
2021/04/01 00:47:24;;;;;;;;;;;11.70;99.90;;;;;;4160441;28;19994;-79
2021/04/01 00:49:25;;;;;;;;;;;11.70;99.90;;;;;;4146157;28;19937;-79
2021/04/01 00:51:26;;;;;;;;;;;11.60;99.90;;;;;;4146621;28;20027;-79
2021/04/01 00:53:27;;;;;;;;;;;11.50;99.90;;;;;;4159340;28;20300;-78
2021/04/01 00:55:28;;;;;;;;;;;11.60;99.90;;;;;;4146419;28;19972;-78
2021/04/01 00:57:28;;;;;;;;;;;12.10;99.90;;;;;;4145012;28;19913;-78
2021/04/01 00:59:29;;;;;;;;;;;11.50;99.90;;;;;;4147292;28;19933;-78
2021/04/01 01:01:40;;;;;;;;;;;11.50;99.90;;;;;;4164774;28;20000;-79
2021/04/01 01:03:41;;;;;;;;;;;11.50;99.90;;;;;;4147740;28;19917;-78
2021/04/01 01:05:41;;;;;;;;;;;11.40;99.90;;;;;;4146359;28;19909;-78
2021/04/01 01:07:42;;;;;;;;;;;11.40;99.90;;;;;;4163709;28;19916;-78
2021/04/01 01:09:43;;;;;;;;;;;11.50;99.90;;;;;;4147391;28;19964;-79
2021/04/01 01:11:43;;;;;;;;;;;11.50;99.90;;;;;;4164366;28;20367;-80
2021/04/01 01:13:44;;;;;;;;;;;11.60;99.90;;;;;;4162869;28;19937;-79
2021/04/01 01:15:44;;;;;;;;;;;11.70;99.90;;;;;;4164731;28;19913;-79
2021/04/01 01:17:45;;;;;;;;;;;11.70;99.90;;;;;;4164429;28;19935;-79
2021/04/01 01:19:53;;;;;;;;;;;11.60;99.90;;;;;;4147129;28;19948;-79
2021/04/01 01:21:53;;;;;;;;;;;11.60;99.90;;;;;;4164753;28;20356;-79
2021/04/01 01:23:54;;;;;;;;;;;11.50;99.90;;;;;;4162104;28;19963;-79
2021/04/01 01:25:56;;;;;;;;;;;11.60;99.90;;;;;;4148853;28;19959;-79
2021/04/01 01:27:56;;;;;;;;;;;11.60;99.90;;;;;;4147073;28;19917;-79
2021/04/01 01:29:57;;;;;;;;;;;11.60;99.90;;;;;;4146703;28;20388;-79
2021/04/01 01:31:58;;;;;;;;;;;11.60;99.90;;;;;;4146904;28;20265;-78
2021/04/01 01:33:59;;;;;;;;;;;11.70;99.90;;;;;;4164488;28;19909;-79
2021/04/01 01:35:59;;;;;;;;;;;11.70;99.90;;;;;;4163903;28;19995;-79
2021/04/01 01:38:01;;;;;;;;;;;11.50;99.90;;;;;;4163558;28;20043;-79
2021/04/01 01:40:02;;;;;;;;;;;11.60;99.90;;;;;;4144116;28;19910;-79
2021/04/01 01:42:05;;;;;;;;;;;11.40;99.90;;;;;;4144879;28;19961;-79
2021/04/01 01:44:06;;;;;;;;;;;11.60;99.90;;;;;;4161998;28;19916;-78
2021/04/01 01:46:06;;;;;;;;;;;11.60;99.90;;;;;;4144203;28;21042;-79
2021/04/01 01:48:08;;;;;;;;;;;11.60;99.90;;;;;;4146567;28;19995;-78
2021/04/01 01:50:11;;;;;;;;;;;11.60;99.90;;;;;;4146631;28;20361;-78
2021/04/01 01:52:12;;;;;;;;;;;11.50;99.90;;;;;;4163933;28;19913;-79
2021/04/01 01:54:12;;;;;;;;;;;11.80;99.90;;;;;;4146444;28;19913;-78
2021/04/01 01:56:14;;;;;;;;;;;;;;;;;;4164527;28;19992;-78
2021/04/01 01:58:15;;;;;;;;;;;12.10;99.90;;;;;;4146460;28;20332;-78
2021/04/01 02:00:15;;;;;;;;;;;12.00;99.90;;;;;;4140842;28;19916;-77
2021/04/01 02:02:16;;;;;;;;;;;12.00;99.90;;;;;;4146759;28;20395;-77
2021/04/01 02:04:17;;;;;;;;;;;11.90;99.90;;;;;;4141320;28;20287;-79
2021/04/01 02:06:20;;;;;;;;;;;12.10;99.90;;;;;;4163615;28;19909;-79
2021/04/01 02:08:20;;;;;;;;;;;12.40;99.90;;;;;;4163365;28;19909;-79
2021/04/01 02:10:23;;;;;;;;;;;12.20;99.90;;;;;;4146320;28;19916;-79
2021/04/01 02:12:24;;;;;;;;;;;12.20;99.90;;;;;;4161477;28;19912;-80
2021/04/01 02:14:25;;;;;;;;;;;12.30;99.90;;;;;;4163939;28;19909;-80
2021/04/01 02:16:25;;;;;;;;;;;12.40;99.90;;;;;;4145758;28;20373;-79
2021/04/01 02:18:26;;;;;;;;;;;;;;;;;;4161301;28;19917;-79
2021/04/01 02:20:27;;;;;;;;;;;12.40;99.90;;;;;;4135979;28;20365;-79
2021/04/01 02:22:28;;;;;;;;;;;12.40;99.90;;;;;;4159322;28;19910;-79
2021/04/01 02:24:28;;;;;;;;;;;13.10;99.90;;;;;;4158732;28;19910;-79
2021/04/01 02:26:29;;;;;;;;;;;12.40;99.90;;;;;;4159260;28;20427;-77
2021/04/01 02:28:31;;;;;;;;;;;12.40;99.90;;;;;;4163883;28;20392;-79
2021/04/01 02:30:33;;;;;;;;;;;;;;;;;;4146165;28;20348;-78
2021/04/01 02:32:34;;;;;;;;;;;;;;;;;;4157563;28;19913;-79
2021/04/01 02:34:34;;;;;;;;;;;12.80;99.90;;;;;;4137636;28;19916;-79
2021/04/01 02:36:35;;;;;;;;;;;11.50;99.90;;;;;;4138600;28;19956;-79
2021/04/01 02:38:36;;;;;;;;;;;12.00;99.90;;;;;;4162157;28;19959;-79
2021/04/01 02:40:37;;;;;;;;;;;11.90;99.90;;;;;;4145666;28;19916;-79
2021/04/01 02:42:37;;;;;;;;;;;11.60;99.90;;;;;;4145770;28;19945;-79
2021/04/01 02:44:38;;;;;;;;;;;11.90;99.90;;;;;;4136072;28;19948;-78
2021/04/01 02:46:38;;;;;;;;;;;11.80;99.90;;;;;;4145963;28;19909;-79
2021/04/01 02:48:39;;;;;;;;;;;11.90;99.90;;;;;;4163227;28;19909;-79
2021/04/01 02:50:39;;;;;;;;;;;11.80;99.90;;;;;;4157875;28;19964;-79
2021/04/01 02:52:41;;;;;;;;;;;;;;;;;;4153908;28;19936;-78
2021/04/01 02:54:42;;;;;;;;;;;11.50;99.90;;;;;;4130792;28;19964;-79
2021/04/01 02:56:42;;;;;;;;;;;11.40;99.90;;;;;;4162047;28;19916;-79
2021/04/01 02:58:43;;;;;;;;;;;11.40;99.90;;;;;;4130365;28;19910;-79
2021/04/01 03:00:44;;;;;;;;;;;11.40;99.90;;;;;;4129758;28;20349;-78
2021/04/01 03:02:50;;;;;;;;;;;11.10;99.90;;;;;;4155147;28;19909;-79
2021/04/01 03:04:51;;;;;;;;;;;11.20;99.90;;;;;;4162051;28;19944;-79
2021/04/01 03:06:52;;;;;;;;;;;;;;;;;;4144207;28;19944;-79
2021/04/01 03:08:52;;;;;;;;;;;10.90;99.90;;;;;;4161136;28;19913;-79
2021/04/01 03:10:54;;;;;;;;;;;10.90;99.90;;;;;;4162147;28;19932;-79
2021/04/01 03:12:55;;;;;;;;;;;10.80;99.90;;;;;;4160186;28;19996;-79
2021/04/01 03:14:55;;;;;;;;;;;10.80;99.90;;;;;;4144525;28;19910;-78
2021/04/01 03:16:56;;;;;;;;;;;10.70;99.90;;;;;;4158582;28;19913;-79
2021/04/01 03:18:56;;;;;;;;;;;10.50;99.90;;;;;;4142881;28;20407;-78
2021/04/01 03:20:57;;;;;;;;;;;10.40;99.90;;;;;;4139316;28;20349;-79
2021/04/01 03:22:57;;;;;;;;;;;10.20;99.90;;;;;;4156677;28;19932;-78
2021/04/01 03:24:58;;;;;;;;;;;10.20;99.90;;;;;;4143409;28;20012;-78
2021/04/01 03:26:58;;;;;;;;;;;10.00;99.90;;;;;;4157712;28;19916;-78
2021/04/01 03:29:00;;;;;;;;;;;9.90;99.90;;;;;;4143607;28;19909;-78
2021/04/01 03:31:03;;;;;;;;;;;9.70;99.90;;;;;;4153931;28;19913;-78
2021/04/01 03:33:04;;;;;;;;;;;9.60;99.90;;;;;;4144380;28;19914;-78
2021/04/01 03:35:05;;;;;;;;;;;9.50;99.90;;;;;;4138765;28;19935;-78
2021/04/01 03:37:05;;;;;;;;;;;9.40;99.90;;;;;;4139831;28;19913;-78
2021/04/01 03:39:06;;;;;;;;;;;9.40;99.90;;;;;;4142238;28;20011;-78
2021/04/01 03:41:07;;;;;;;;;;;9.40;99.90;;;;;;4163273;28;19909;-78
2021/04/01 03:43:08;;;;;;;;;;;9.40;99.90;;;;;;4147381;28;20276;-78
2021/04/01 03:45:10;;;;;;;;;;;9.30;99.90;;;;;;4147290;28;19921;-78
2021/04/01 03:47:10;;;;;;;;;;;9.30;99.90;;;;;;4155258;28;20276;-78
2021/04/01 03:49:11;;;;;;;;;;;9.30;99.90;;;;;;4147560;28;20004;-78
2021/04/01 03:51:11;;;;;;;;;;;9.30;99.90;;;;;;4159565;28;19919;-77
2021/04/01 03:53:12;;;;;;;;;;;9.30;99.90;;;;;;4159307;28;19909;-78
2021/04/01 03:55:34;;;;;;;;;;;9.20;99.90;;;;;;4147403;28;19909;-78
2021/04/01 03:57:35;;;;;;;;;;;9.30;99.90;;;;;;4139880;28;19933;-78
2021/04/01 04:06:39;;;;;;;;;;;9.00;99.90;;;;;;4164705;28;20003;-78
2021/04/01 04:12:58;;;;;;;;;;;8.90;99.90;;;;;;4162293;28;20253;-78
2021/04/01 04:17:03;;;;;;;;;;;8.70;99.90;;;;;;4164646;28;19909;-78
2021/04/01 04:19:04;;;;;;;;;;;8.70;99.90;;;;;;4140278;28;613393;-79
2021/04/01 04:21:06;;;;;;;;;;;8.70;99.90;;;;;;4161421;28;19913;-77
2021/04/01 04:23:09;;;;;;;;;;;8.70;99.90;;;;;;4146668;28;20377;-79
2021/04/01 04:25:12;;;;;;;;;;;8.80;99.90;;;;;;4146836;28;20234;-78
2021/04/01 04:29:36;;;;;;;;;;;8.90;99.90;;;;;;4102013;28;20225;-79
2021/04/01 04:31:37;;;;;;;;;;;8.90;99.90;;;;;;4148071;28;19968;-78
2021/04/01 04:33:37;;;;;;;;;;;8.90;99.90;;;;;;4165574;28;19959;-78
2021/04/01 04:35:38;;;;;;;;;;;8.90;99.90;;;;;;4159955;28;20506;-78
2021/04/01 04:37:38;;;;;;;;;;;9.00;99.90;;;;;;4160724;28;19999;-79
2021/04/01 04:39:39;;;;;;;;;;;9.10;99.90;;;;;;4146845;28;19917;-78
2021/04/01 04:41:39;;;;;;;;;;;9.20;99.90;;;;;;4158947;28;19909;-79
2021/04/01 04:43:40;;;;;;;;;;;9.20;99.90;;;;;;4147485;28;20004;-79
2021/04/01 04:45:40;;;;;;;;;;;9.20;99.90;;;;;;4155462;28;19909;-79
2021/04/01 04:47:41;;;;;;;;;;;9.10;99.90;;;;;;4159984;28;19909;-79
2021/04/01 04:49:42;;;;;;;;;;;9.00;99.90;;;;;;4147261;28;19916;-79
2021/04/01 04:51:42;;;;;;;;;;;9.00;99.90;;;;;;4161593;28;19920;-78
2021/04/01 04:53:43;;;;;;;;;;;9.00;99.90;;;;;;4142102;28;19969;-79
2021/04/01 04:56:31;;;;;;;;;;;9.00;99.90;;;;;;4146521;28;19948;-78
2021/04/01 04:58:11;;;;;;;;;;;8.90;99.90;;;;;;4152396;28;19952;-78
2021/04/01 05:04:44;;;;;;;;;;;8.80;99.90;;;;;;4164515;28;19960;-79
2021/04/01 05:06:54;;;;;;;;;;;8.80;99.90;;;;;;4146250;28;19910;-78
2021/04/01 05:08:55;;;;;;;;;;;8.80;99.90;;;;;;4149090;28;19913;-78
2021/04/01 05:10:56;;;;;;;;;;;8.80;99.90;;;;;;4148531;28;19972;-78
2021/04/01 05:13:09;;;;;;;;;;;8.70;99.90;;;;;;4147095;28;19936;-78
2021/04/01 05:15:10;;;;;;;;;;;8.60;99.90;;;;;;4162535;28;20335;-78
2021/04/01 05:17:14;;;;;;;;;;;8.60;99.90;;;;;;4163764;28;19913;-79
2021/04/01 05:19:15;;;;;;;;;;;8.60;99.90;;;;;;4161825;28;20013;-78
2021/04/01 05:21:17;;;;;;;;;;;8.70;99.90;;;;;;4144371;28;19914;-78
2021/04/01 05:23:39;;;;;;;;;;;8.70;99.90;;;;;;4143792;28;20036;-78
2021/04/01 05:25:39;;;;;;;;;;;8.90;99.90;;;;;;4159405;28;19916;-77
2021/04/01 05:27:45;;;;;;;;;;;9.00;99.90;;;;;;4145687;28;19909;-78
2021/04/01 05:29:58;;;;;;;;;;;9.10;99.90;;;;;;4147024;28;19921;-78
2021/04/01 05:31:59;;;;;;;;;;;9.20;99.90;;;;;;4157782;28;20300;-79
2021/04/01 05:34:00;;;;;;;;;;;9.30;99.90;;;;;;4141682;28;19913;-79
2021/04/01 05:36:04;;;;;;;;;;;9.30;99.90;;;;;;4148870;28;19909;-78
2021/04/01 05:38:05;;;;;;;;;;;9.30;99.90;;;;;;4163376;28;20352;-79
2021/04/01 05:40:06;;;;;;;;;;;9.40;99.90;;;;;;4146457;28;19917;-79
2021/04/01 05:42:07;;;;;;;;;;;9.50;99.90;;;;;;4164332;28;19909;-79
2021/04/01 05:44:21;;;;;;;;;;;9.60;99.90;;;;;;4163843;28;20387;-79
2021/04/01 05:46:30;;;;;;;;;;;9.60;99.90;;;;;;4146622;28;20364;-78
2021/04/01 05:49:22;;;;;;;;;;;9.70;99.90;;;;;;4142340;28;19990;-78
2021/04/01 05:58:00;;;;;;;;;;;10.10;99.90;;;;;;4163683;28;19928;-80
2021/04/01 06:02:24;;;;;;;;;;;10.20;99.90;;;;;;4160623;28;20356;-80
2021/04/01 06:04:52;;;;;;;;;;;10.30;99.90;;;;;;4164429;28;20252;-81
2021/04/01 06:07:04;;;;;;;;;;;10.30;99.90;;;;;;4149490;28;19914;-79
2021/04/01 06:09:10;;;;;;;;;;;10.40;99.90;;;;;;4147996;28;20547;-80
2021/04/01 06:11:11;;;;;;;;;;;10.50;99.90;;;;;;4146745;28;19921;-80
2021/04/01 06:13:13;;;;;;;;;;;10.50;99.90;;;;;;4160173;28;20376;-80
2021/04/01 06:15:17;;;;;;;;;;;10.60;99.90;;;;;;4151075;28;19913;-80
2021/04/01 06:17:18;;;;;;;;;;;10.60;99.90;;;;;;4142525;28;19921;-78
2021/04/01 06:19:22;;;;;;;;;;;10.60;99.90;;;;;;4145467;28;20380;-80
2021/04/01 06:21:26;;;;;;;;;;;10.70;99.90;;;;;;4162903;28;19912;-80
2021/04/01 06:23:27;;;;;;;;;;;10.70;99.90;;;;;;4151308;28;19965;-80
2021/04/01 06:25:32;;;;;;;;;;;10.70;99.90;;;;;;4147246;28;20371;-80
2021/04/01 06:27:37;;;;;;;;;;;10.80;99.90;;;;;;4148144;28;19917;-80
2021/04/01 06:29:39;;;;;;;;;;;10.90;99.90;;;;;;4144318;28;19963;-80
2021/04/01 06:31:42;;;;;;;;;;;10.90;99.90;;;;;;4160773;28;19946;-80
2021/04/01 06:33:44;;;;;;;;;;;10.90;99.90;;;;;;4164683;28;19997;-80
2021/04/01 06:35:48;;;;;;;;;;;10.90;99.90;;;;;;4164181;28;19913;-81
2021/04/01 06:38:19;;;;;;;;;;;10.90;99.90;;;;;;4146900;28;19910;-81
2021/04/01 06:40:20;;;;;;;;;;;11.00;99.90;;;;;;4162902;28;19948;-80
2021/04/01 06:42:26;;;;;;;;;;;11.10;99.90;;;;;;4155641;28;19917;-81
2021/04/01 06:44:42;;;;;;;;;;;11.10;99.90;;;;;;4146433;28;19913;-81
2021/04/01 06:46:44;;;;;;;;;;;11.10;99.90;;;;;;4160025;28;20409;-80
2021/04/01 06:50:47;;;;;;;;;;;11.10;99.90;;;;;;4168854;28;19909;-81
2021/04/01 06:52:59;;;;;;;;;;;11.10;99.90;;;;;;4168458;28;19917;-81
2021/04/01 06:55:24;;;;;;;;;;;11.20;99.90;;;;;;4167894;28;19909;-81
2021/04/01 06:59:49;;;;;;;;;;;11.20;99.90;;;;;;4158734;28;19909;-81
2021/04/01 07:01:58;;;;;;;;;;;11.20;99.90;;;;;;4151202;28;19920;-80
2021/04/01 07:04:02;;;;;;;;;;;11.30;99.90;;;;;;4155420;28;19910;-80
2021/04/01 07:06:08;;;;;;;;;;;11.30;99.90;;;;;;4157934;28;19918;-79
2021/04/01 07:08:10;;;;;;;;;;;11.30;99.90;;;;;;4166956;28;19936;-79
2021/04/01 07:10:30;;;;;;;;;;;11.40;99.90;;;;;;4168574;28;19913;-79
2021/04/01 07:12:35;;;;;;;;;;;11.40;99.90;;;;;;4170582;28;19964;-80
2021/04/01 07:14:39;;;;;;;;;;;11.50;99.90;;;;;;4169213;28;20352;-80
2021/04/01 07:16:53;;;;;;;;;;;11.50;99.90;;;;;;4150091;28;19910;-80
2021/04/01 07:35:58;;;;;;;;;;;11.80;99.90;;;;;;4117998;28;20278;-80
2021/04/01 07:47:42;;;;;;;;;;;12.10;99.90;;;;;;4128447;28;19917;-81
2021/04/01 07:49:45;;;;;;;;;;;12.10;99.90;;;;;;4124076;28;19910;-81
2021/04/01 07:51:58;;;;;;;;;;;12.10;99.90;;;;;;4127530;28;19945;-81
2021/04/01 07:54:02;;;;;;;;;;;12.20;99.90;;;;;;4122614;28;19952;-80
2021/04/01 07:58:55;;;;;;;;;;;12.20;99.90;;;;;;4131014;28;20279;-81
2021/04/01 08:03:00;;;;;;;;;;;12.20;99.90;;;;;;4136131;28;19910;-80
2021/04/01 08:05:01;;;;;;;;;;;12.30;99.90;;;;;;4134519;28;19917;-80
2021/04/01 08:07:12;;;;;;;;;;;12.20;99.90;;;;;;4119619;28;19914;-80
2021/04/01 08:09:18;;;;;;;;;;;12.20;99.90;;;;;;4121001;28;19924;-81
2021/04/01 08:11:27;;;;;;;;;;;12.30;99.90;;;;;;4130122;28;19965;-80
2021/04/01 08:13:30;;;;;;;;;;;12.40;99.90;;;;;;4133292;28;19956;-80
2021/04/01 08:15:42;;;;;;;;;;;12.40;99.90;;;;;;4134943;28;19932;-80
2021/04/01 08:17:57;;;;;;;;;;;12.40;99.90;;;;;;4125924;28;19995;-80
2021/04/01 08:20:01;;;;;;;;;;;12.50;99.90;;;;;;4146846;28;20311;-79
2021/04/01 08:22:03;;;;;;;;;;;12.70;99.90;;;;;;4143043;28;19959;-79
2021/04/01 08:24:07;;;;;;;;;;;12.70;99.90;;;;;;4152352;28;19914;-80
2021/04/01 08:28:38;;;;;;;;;;;12.70;99.90;;;;;;4151721;28;19913;-80
2021/04/01 08:35:12;;;;;;;;;;;12.80;99.90;;;;;;4143459;28;19960;-79
2021/04/01 08:37:14;;;;;;;;;;;12.80;99.90;;;;;;4151927;28;19937;-80
2021/04/01 08:39:16;;;;;;;;;;;12.90;99.90;;;;;;4153542;28;19910;-80
2021/04/01 08:41:19;;;;;;;;;;;13.00;99.90;;;;;;4152936;28;20327;-79
2021/04/01 08:43:37;;;;;;;;;;;13.10;99.90;;;;;;4143253;28;19932;-80
2021/04/01 08:45:41;;;;;;;;;;;13.20;99.90;;;;;;4152391;28;19909;-80
2021/04/01 08:48:00;;;;;;;;;;;13.30;99.90;;;;;;4150857;28;19956;-79
2021/04/01 08:50:03;;;;;;;;;;;13.40;99.90;;;;;;4148633;28;19921;-80
2021/04/01 08:52:16;;;;;;;;;;;13.40;99.90;;;;;;4152566;28;19921;-78
2021/04/01 08:54:16;;;;;;;;;;;13.50;99.90;;;;;;4151250;28;19910;-80
2021/04/01 08:56:33;;;;;;;;;;;13.50;99.90;;;;;;4142507;28;19910;-79
2021/04/01 08:58:41;;;;;;;;;;;13.40;99.90;;;;;;4150289;28;19972;-80
2021/04/01 09:00:42;;;;;;;;;;;13.60;99.90;;;;;;4149260;28;19909;-80
2021/04/01 09:02:48;;;;;;;;;;;13.60;99.90;;;;;;4151183;28;19910;-79
2021/04/01 09:04:49;;;;;;;;;;;13.60;99.90;;;;;;4145228;28;20003;-80
2021/04/01 09:06:51;;;;;;;;;;;13.60;99.90;;;;;;4146976;28;19997;-80
2021/04/01 09:09:04;;;;;;;;;;;13.70;99.90;;;;;;4139944;28;19913;-80
2021/04/01 09:11:05;;;;;;;;;;;13.80;99.90;;;;;;4149971;28;19917;-80
2021/04/01 09:15:23;;;;;;;;;;;13.80;99.90;;;;;;4151574;28;19920;-80
2021/04/01 09:17:28;;;;;;;;;;;13.80;99.90;;;;;;4149107;28;19956;-79
2021/04/01 09:19:29;;;;;;;;;;;13.90;99.90;;;;;;4133778;28;19930;-79
2021/04/01 09:21:34;;;;;;;;;;;13.90;99.90;;;;;;4132759;28;19918;-80
2021/04/01 09:23:37;;;;;;;;;;;13.90;99.90;;;;;;4130578;28;20330;-80
2021/04/01 09:25:41;;;;;;;;;;;13.90;99.90;;;;;;4142914;28;19913;-80
2021/04/01 09:27:46;;;;;;;;;;;13.90;99.90;;;;;;4127295;28;19945;-80
2021/04/01 09:29:47;;;;;;;;;;;14.00;99.90;;;;;;4124145;28;19980;-80
2021/04/01 09:31:54;;;;;;;;;;;14.20;99.90;;;;;;4121060;28;20361;-80
2021/04/01 09:33:55;;;;;;;;;;;14.40;99.90;;;;;;4119954;28;19910;-79
2021/04/01 09:36:09;;;;;;;;;;;14.70;99.90;;;;;;4128061;28;19914;-80
2021/04/01 09:38:10;;;;;;;;;;;14.60;99.90;;;;;;4127210;28;20458;-80
2021/04/01 09:40:12;;;;;;;;;;;14.70;99.90;;;;;;4131857;28;19949;-80
2021/04/01 09:42:14;;;;;;;;;;;14.80;99.90;;;;;;4129904;28;19917;-80
2021/04/01 09:44:14;;;;;;;;;;;14.90;99.90;;;;;;4130965;28;20349;-80
2021/04/01 09:46:15;;;;;;;;;;;15.00;99.90;;;;;;4129709;28;19956;-80
2021/04/01 09:48:25;;;;;;;;;;;15.10;99.90;;;;;;4127014;28;19913;-80
2021/04/01 09:50:28;;;;;;;;;;;15.20;99.90;;;;;;4127789;28;19910;-80
2021/04/01 09:52:29;;;;;;;;;;;15.30;99.90;;;;;;4128997;28;20431;-79
2021/04/01 09:54:31;;;;;;;;;;;15.30;99.90;;;;;;4129012;28;19917;-80
2021/04/01 09:56:32;;;;;;;;;;;15.40;99.90;;;;;;4128177;28;20353;-79
2021/04/01 09:58:40;;;;;;;;;;;15.50;99.90;;;;;;4129700;28;19910;-80
2021/04/01 10:03:09;;;;;;;;;;;15.60;99.90;;;;;;4128452;28;20002;-80
2021/04/01 10:05:10;;;;;;;;;;;15.50;99.90;;;;;;4130156;28;20728;-79
2021/04/01 10:07:12;;;;;;;;;;;16.20;99.90;;;;;;4129258;28;20013;-80
2021/04/01 10:09:13;;;;;;;;;;;16.20;99.90;;;;;;4129202;28;19910;-80
2021/04/01 10:11:34;;;;;;;;;;;16.20;99.90;;;;;;4130014;28;20004;-80
2021/04/01 10:13:34;;;;;;;;;;;16.30;99.90;;;;;;4128896;28;19910;-79
2021/04/01 10:15:36;;;;;;;;;;;16.40;99.90;;;;;;4130792;28;19910;-80
2021/04/01 10:17:38;;;;;;;;;;;16.50;99.90;;;;;;4129311;28;19916;-79
2021/04/01 10:19:39;;;;;;;;;;;16.50;99.90;;;;;;4160302;28;19928;-79
2021/04/01 10:21:43;;;;;;;;;;;16.70;99.90;;;;;;4145254;28;19909;-80
2021/04/01 10:23:49;;;;;;;;;;;16.80;99.90;;;;;;4142531;28;19988;-79
2021/04/01 10:25:52;;;;;;;;;;;16.60;99.90;;;;;;4160280;28;19921;-79
2021/04/01 10:28:14;;;;;;;;;;;16.70;99.90;;;;;;4145158;28;20319;-81
2021/04/01 10:30:15;;;;;;;;;;;17.00;99.90;;;;;;4162448;28;19967;-80
2021/04/01 10:32:16;;;;;;;;;;;17.30;99.90;;;;;;4162556;28;19913;-80
2021/04/01 10:34:36;;;;;;;;;;;17.30;99.90;;;;;;4162466;28;19931;-81
2021/04/01 10:36:37;;;;;;;;;;;;;;;;;;4161993;28;19960;-79
2021/04/01 10:38:38;;;;;;;;;;;;;;;;;;4162334;28;20377;-79
2021/04/01 10:40:39;;;;;;;;;;;18.70;99.90;;;;;;4144960;28;19936;-79
2021/04/01 10:42:42;;;;;;;;;;;18.20;99.90;;;;;;4163181;28;19963;-80
2021/04/01 10:44:42;;;;;;;;;;;18.10;99.90;;;;;;4155859;28;19910;-79
2021/04/01 10:46:44;;;;;;;;;;;;;;;;;;4146681;28;20395;-78
2021/04/01 10:48:50;;;;;;;;;;;18.70;99.90;;;;;;4148340;28;19949;-79
2021/04/01 10:50:51;;;;;;;;;;;18.90;99.90;;;;;;4164192;28;19932;-78
2021/04/01 10:52:52;;;;;;;;;;;19.00;99.90;;;;;;4159705;28;19958;-78
2021/04/01 10:54:53;;;;;;;;;;;19.00;99.90;;;;;;4142396;28;19965;-78
2021/04/01 10:56:54;;;;;;;;;;;19.30;99.90;;;;;;4167417;28;19920;-79
2021/04/01 10:58:56;;;;;;;;;;;19.50;99.90;;;;;;4151838;28;19919;-79
2021/04/01 11:01:00;;;;;;;;;;;19.40;99.90;;;;;;4148470;28;19914;-78
2021/04/01 11:03:02;;;;;;;;;;;19.20;99.90;;;;;;4146414;28;20004;-79
2021/04/01 11:05:17;;;;;;;;;;;19.00;99.90;;;;;;4163227;28;20016;-77
2021/04/01 11:07:17;;;;;;;;;;;19.00;99.90;;;;;;4149143;28;20360;-79
2021/04/01 11:09:19;;;;;;;;;;;19.00;99.90;;;;;;4163161;28;19931;-79
2021/04/01 11:11:23;;;;;;;;;;;19.20;99.90;;;;;;4170405;28;20242;-80
2021/04/01 11:13:31;;;;;;;;;;;19.40;99.90;;;;;;4144338;28;19921;-80
2021/04/01 11:15:32;;;;;;;;;;;19.50;99.90;;;;;;4154214;28;19910;-80
2021/04/01 11:17:36;;;;;;;;;;;19.70;99.90;;;;;;4146817;28;20304;-81
2021/04/01 11:19:38;;;;;;;;;;;19.90;99.90;;;;;;4134531;28;20376;-80
2021/04/01 11:21:39;;;;;;;;;;;20.00;99.90;;;;;;4163263;28;20281;-80
2021/04/01 11:23:40;;;;;;;;;;;19.70;99.90;;;;;;4146595;28;19925;-80
2021/04/01 11:25:57;;;;;;;;;;;19.30;99.90;;;;;;4147055;28;19909;-81
2021/04/01 11:27:58;;;;;;;;;;;19.30;99.90;;;;;;4153266;28;19992;-81
2021/04/01 11:29:59;;;;;;;;;;;19.50;99.90;;;;;;4153774;28;20288;-80
2021/04/01 11:32:11;;;;;;;;;;;19.40;99.90;;;;;;4147497;28;20000;-81
2021/04/01 11:34:13;;;;;;;;;;;19.40;99.90;;;;;;4162517;28;20407;-81
2021/04/01 11:36:16;;;;;;;;;;;19.40;99.90;;;;;;4165685;28;19971;-80
2021/04/01 11:38:22;;;;;;;;;;;19.20;99.90;;;;;;4164657;28;19909;-80
2021/04/01 11:40:23;;;;;;;;;;;19.40;99.90;;;;;;4148544;28;19980;-80
2021/04/01 11:42:24;;;;;;;;;;;19.30;99.90;;;;;;4155437;28;20009;-80
2021/04/01 11:44:24;;;;;;;;;;;19.00;99.90;;;;;;4142608;28;19999;-81
2021/04/01 11:46:26;;;;;;;;;;;;;;;;;;4145148;28;19960;-81
2021/04/01 11:48:28;;;;;;;;;;;;;;;;;;4147265;28;19909;-81
2021/04/01 11:50:30;;;;;;;;;;;;;;;;;;4148501;28;19909;-80
2021/04/01 11:52:32;;;;;;;;;;;19.90;99.90;;;;;;4139980;28;19920;-81
2021/04/01 11:54:32;;;;;;;;;;;20.00;99.90;;;;;;4145958;28;19909;-81
2021/04/01 11:56:34;;;;;;;;;;;;;;;;;;4162015;28;19909;-79
2021/04/01 11:58:35;;;;;;;;;;;;;;;;;;4163621;28;19963;-80
2021/04/01 12:00:36;;;;;;;;;;;18.70;99.90;;;;;;4149691;28;20301;-79
2021/04/01 12:02:52;;;;;;;;;;;18.90;99.90;;;;;;4145207;28;19944;-80
2021/04/01 12:04:55;;;;;;;;;;;19.10;99.90;;;;;;4154770;28;20412;-81
2021/04/01 12:06:58;;;;;;;;;;;19.60;99.90;;;;;;4164846;28;19909;-80
2021/04/01 12:08:58;;;;;;;;;;;19.70;99.90;;;;;;4167550;28;20310;-81
2021/04/01 12:10:59;;;;;;;;;;;19.50;99.90;;;;;;4149421;28;19909;-81
2021/04/01 12:13:00;;;;;;;;;;;19.60;99.90;;;;;;4149672;28;19915;-79
2021/04/01 12:15:01;;;;;;;;;;;19.40;99.90;;;;;;4149245;28;19927;-79
2021/04/01 12:17:02;;;;;;;;;;;;;;;;;;4168533;28;20374;-78
2021/04/01 12:19:03;;;;;;;;;;;19.90;99.90;;;;;;4163673;28;20388;-81
2021/04/01 12:21:05;;;;;;;;;;;20.00;99.90;;;;;;4140746;28;19917;-80
2021/04/01 12:23:10;;;;;;;;;;;20.10;99.90;;;;;;4169065;28;19920;-80
2021/04/01 12:25:15;;;;;;;;;;;20.10;99.90;;;;;;4156391;28;19910;-80
2021/04/01 12:27:25;;;;;;;;;;;20.80;99.90;;;;;;4164577;28;20276;-79
2021/04/01 12:29:27;;;;;;;;;;;21.30;99.90;;;;;;4149614;28;19910;-80
2021/04/01 12:31:29;;;;;;;;;;;20.70;99.90;;;;;;4148996;28;19917;-81
2021/04/01 12:33:30;;;;;;;;;;;20.90;99.90;;;;;;4132805;28;20388;-81
2021/04/01 12:35:31;;;;;;;;;;;20.90;99.90;;;;;;4149167;28;19996;-80
2021/04/01 12:37:31;;;;;;;;;;;20.70;99.90;;;;;;4143041;28;20360;-81
2021/04/01 12:39:33;;;;;;;;;;;20.80;99.90;;;;;;4148677;28;19909;-81
2021/04/01 12:41:35;;;;;;;;;;;20.60;99.90;;;;;;4166950;28;19913;-81
2021/04/01 12:43:37;;;;;;;;;;;20.20;99.90;;;;;;4154534;28;19913;-81
2021/04/01 12:45:37;;;;;;;;;;;20.10;99.90;;;;;;4158985;28;20003;-81
2021/04/01 12:47:38;;;;;;;;;;;20.00;99.90;;;;;;4171376;28;19915;-81
2021/04/01 12:49:38;;;;;;;;;;;19.90;99.90;;;;;;4151863;28;19910;-81
2021/04/01 12:51:52;;;;;;;;;;;19.70;99.90;;;;;;4135347;28;19913;-82
2021/04/01 12:54:12;;;;;;;;;;;19.70;99.90;;;;;;4138297;28;20000;-80
2021/04/01 12:58:24;;;;;;;;;;;19.50;99.90;;;;;;4165878;28;19979;-80
2021/04/01 13:00:53;;;;;;;;;;;19.80;99.90;;;;;;4145709;28;19949;-83
2021/04/01 13:02:53;;;;;;;;;;;20.30;99.90;;;;;;4133388;28;20008;-80
2021/04/01 13:04:57;;;;;;;;;;;20.30;99.90;;;;;;4164874;28;19917;-81
2021/04/01 13:07:09;;;;;;;;;;;20.40;99.90;;;;;;4148749;28;19985;-82
2021/04/01 13:11:17;;;;;;;;;;;20.80;99.90;;;;;;4154118;28;20252;-81
2021/04/01 13:13:17;;;;;;;;;;;20.60;99.90;;;;;;4144316;28;19940;-81
2021/04/01 13:15:18;;;;;;;;;;;21.00;99.90;;;;;;4146599;28;19910;-82
2021/04/01 13:17:19;;;;;;;;;;;21.40;99.90;;;;;;4167304;28;19909;-81
2021/04/01 13:19:19;;;;;;;;;;;21.80;99.90;;;;;;4163481;28;19921;-81
2021/04/01 13:21:32;;;;;;;;;;;21.90;99.90;;;;;;4147588;28;19917;-81
2021/04/01 13:23:42;;;;;;;;;;;21.70;99.90;;;;;;4148366;28;19917;-83
2021/04/01 13:25:45;;;;;;;;;;;21.80;99.90;;;;;;4146002;28;19987;-83